Pays
Station

 

Conditions  météo  pour  Norwich Weather Centre  -  Royaume-Uni    Royaume-Uni

  
9 °C
    
 
 

METAR pour Norwich Weather Centre :

EGSH 232220Z AUTO 03004KT 5000 HZ NCD 09/08 Q0996

 

Voici le bulletin pour Norwich Weather Centre - Royaume-Uni.
 
Le bulletin a été fait il y a 17 minutes, à 22:20 UTC .
Le vent soufflait à la vitesse de 2.1 mètres par seconde de Nord/Nord-est (030°).
 
La température était de 9 °C, avec un point de rosée à 8 °C.
La pression atmosphérique était de 996 hPa.
L'humidité relative était de 93.4%.
 
La visibilité globale était de 5.0 kilomètres.
 
Actuellement brume.

 
 
 

Pays :   A   B   C   D   E   F   G   H   I   J   K   L   M   N   O   P   Q   R   S   T   U   V   W   Y   Z

 

Partenaires :  Info Météo avec Met'info
Météo Marine avec MeteoMarine.net
Infos Site  |  Infos Légales  |  Crédits  |  Confidentialité
Contactez-nous  |  Ajouter aux favoris
© 2013-2019 METAR - Tous droits réservés